sensor_id;sensor_type;location;lat;lon;timestamp;temperature;humidity
15113;DHT22;7657;50.140;7.076;2023-03-01T00:00:10;0.00;99.90
15113;DHT22;7657;50.140;7.076;2023-03-01T00:02:37;0.00;99.90
15113;DHT22;7657;50.140;7.076;2023-03-01T00:05:05;-0.10;99.90
15113;DHT22;7657;50.140;7.076;2023-03-01T00:07:33;-0.10;99.90
15113;DHT22;7657;50.140;7.076;2023-03-01T00:10:01;-0.10;99.90
15113;DHT22;7657;50.140;7.076;2023-03-01T00:12:28;-0.20;99.90
15113;DHT22;7657;50.140;7.076;2023-03-01T00:14:55;-0.10;99.90
15113;DHT22;7657;50.140;7.076;2023-03-01T00:17:22;-0.20;99.90
15113;DHT22;7657;50.140;7.076;2023-03-01T00:19:48;-0.20;99.90
15113;DHT22;7657;50.140;7.076;2023-03-01T00:22:15;-0.10;99.90
15113;DHT22;7657;50.140;7.076;2023-03-01T00:24:42;-0.10;99.90
15113;DHT22;7657;50.140;7.076;2023-03-01T00:27:10;0.00;99.90
15113;DHT22;7657;50.140;7.076;2023-03-01T00:29:37;0.00;99.90
15113;DHT22;7657;50.140;7.076;2023-03-01T00:32:04;-0.10;99.90
15113;DHT22;7657;50.140;7.076;2023-03-01T00:34:31;0.00;99.90
15113;DHT22;7657;50.140;7.076;2023-03-01T00:36:58;0.00;99.90
15113;DHT22;7657;50.140;7.076;2023-03-01T00:39:31;-0.10;99.90
15113;DHT22;7657;50.140;7.076;2023-03-01T00:41:58;0.00;99.90
15113;DHT22;7657;50.140;7.076;2023-03-01T00:44:26;-0.10;99.90
15113;DHT22;7657;50.140;7.076;2023-03-01T00:46:54;-0.10;99.90
15113;DHT22;7657;50.140;7.076;2023-03-01T00:49:20;0.00;99.90
15113;DHT22;7657;50.140;7.076;2023-03-01T00:51:49;0.00;99.90
15113;DHT22;7657;50.140;7.076;2023-03-01T00:54:16;0.10;99.90
15113;DHT22;7657;50.140;7.076;2023-03-01T00:56:43;0.10;99.90
15113;DHT22;7657;50.140;7.076;2023-03-01T00:59:10;0.10;99.90
15113;DHT22;7657;50.140;7.076;2023-03-01T01:01:38;0.00;99.90
15113;DHT22;7657;50.140;7.076;2023-03-01T01:04:06;0.00;99.90
15113;DHT22;7657;50.140;7.076;2023-03-01T01:06:35;0.00;99.90
15113;DHT22;7657;50.140;7.076;2023-03-01T01:09:05;0.00;99.90
15113;DHT22;7657;50.140;7.076;2023-03-01T01:11:33;0.00;99.90
15113;DHT22;7657;50.140;7.076;2023-03-01T01:14:00;0.00;99.90
15113;DHT22;7657;50.140;7.076;2023-03-01T01:16:28;0.00;99.90
15113;DHT22;7657;50.140;7.076;2023-03-01T01:18:57;0.10;99.90
15113;DHT22;7657;50.140;7.076;2023-03-01T01:21:25;0.10;99.90
15113;DHT22;7657;50.140;7.076;2023-03-01T01:23:53;0.00;99.90
15113;DHT22;7657;50.140;7.076;2023-03-01T01:26:22;0.00;99.90
15113;DHT22;7657;50.140;7.076;2023-03-01T01:28:49;0.00;99.90
15113;DHT22;7657;50.140;7.076;2023-03-01T01:31:17;0.00;99.90
15113;DHT22;7657;50.140;7.076;2023-03-01T01:33:45;0.00;99.90
15113;DHT22;7657;50.140;7.076;2023-03-01T01:36:13;0.10;99.90
15113;DHT22;7657;50.140;7.076;2023-03-01T01:38:40;0.00;99.90
15113;DHT22;7657;50.140;7.076;2023-03-01T01:41:08;0.00;99.90
15113;DHT22;7657;50.140;7.076;2023-03-01T01:43:39;-0.10;99.90
15113;DHT22;7657;50.140;7.076;2023-03-01T01:46:15;0.00;99.90
15113;DHT22;7657;50.140;7.076;2023-03-01T01:48:45;-0.20;99.90
15113;DHT22;7657;50.140;7.076;2023-03-01T01:51:18;-0.20;99.90
15113;DHT22;7657;50.140;7.076;2023-03-01T01:53:48;-0.30;99.90
15113;DHT22;7657;50.140;7.076;2023-03-01T01:56:17;-0.20;99.90
15113;DHT22;7657;50.140;7.076;2023-03-01T01:58:45;-0.20;99.90
15113;DHT22;7657;50.140;7.076;2023-03-01T02:01:13;-0.20;99.90
15113;DHT22;7657;50.140;7.076;2023-03-01T02:03:43;-0.20;99.90
15113;DHT22;7657;50.140;7.076;2023-03-01T02:06:19;-0.30;99.90
15113;DHT22;7657;50.140;7.076;2023-03-01T02:08:49;-0.20;99.90
15113;DHT22;7657;50.140;7.076;2023-03-01T02:11:19;-0.30;99.90
15113;DHT22;7657;50.140;7.076;2023-03-01T02:13:47;-0.30;99.90
15113;DHT22;7657;50.140;7.076;2023-03-01T02:16:15;-0.30;99.90
15113;DHT22;7657;50.140;7.076;2023-03-01T02:18:42;-0.30;99.90
15113;DHT22;7657;50.140;7.076;2023-03-01T02:21:20;-0.30;99.90
15113;DHT22;7657;50.140;7.076;2023-03-01T02:23:53;-0.30;99.90
15113;DHT22;7657;50.140;7.076;2023-03-01T02:26:27;-0.30;99.90
15113;DHT22;7657;50.140;7.076;2023-03-01T02:28:57;-0.40;99.90
15113;DHT22;7657;50.140;7.076;2023-03-01T02:31:24;-0.30;99.90
15113;DHT22;7657;50.140;7.076;2023-03-01T02:34:13;-0.20;99.90
15113;DHT22;7657;50.140;7.076;2023-03-01T02:36:43;-0.20;99.90
15113;DHT22;7657;50.140;7.076;2023-03-01T02:39:15;-0.30;99.90
15113;DHT22;7657;50.140;7.076;2023-03-01T02:41:47;-0.30;99.90
15113;DHT22;7657;50.140;7.076;2023-03-01T02:44:16;-0.30;99.90
15113;DHT22;7657;50.140;7.076;2023-03-01T02:46:45;-0.30;99.90
15113;DHT22;7657;50.140;7.076;2023-03-01T02:49:19;-0.30;99.90
15113;DHT22;7657;50.140;7.076;2023-03-01T02:51:56;-0.40;99.90
15113;DHT22;7657;50.140;7.076;2023-03-01T02:54:31;-0.40;99.90
15113;DHT22;7657;50.140;7.076;2023-03-01T02:57:01;-0.30;99.90
15113;DHT22;7657;50.140;7.076;2023-03-01T02:59:31;-0.30;99.90
15113;DHT22;7657;50.140;7.076;2023-03-01T03:02:01;-0.30;99.90
15113;DHT22;7657;50.140;7.076;2023-03-01T03:04:28;-0.30;99.90
15113;DHT22;7657;50.140;7.076;2023-03-01T03:06:55;-0.40;99.90
15113;DHT22;7657;50.140;7.076;2023-03-01T03:09:21;-0.40;99.90
15113;DHT22;7657;50.140;7.076;2023-03-01T03:11:48;-0.30;99.90
15113;DHT22;7657;50.140;7.076;2023-03-01T03:14:16;-0.40;99.90
15113;DHT22;7657;50.140;7.076;2023-03-01T03:16:47;-0.30;99.90
15113;DHT22;7657;50.140;7.076;2023-03-01T03:19:15;-0.30;99.90
15113;DHT22;7657;50.140;7.076;2023-03-01T03:21:43;-0.20;99.90
15113;DHT22;7657;50.140;7.076;2023-03-01T03:24:10;-0.20;99.90
15113;DHT22;7657;50.140;7.076;2023-03-01T03:26:37;-0.20;99.90
15113;DHT22;7657;50.140;7.076;2023-03-01T03:29:04;-0.20;99.90
15113;DHT22;7657;50.140;7.076;2023-03-01T03:31:31;-0.20;99.90
15113;DHT22;7657;50.140;7.076;2023-03-01T03:33:59;-0.20;99.90
15113;DHT22;7657;50.140;7.076;2023-03-01T03:36:26;-0.30;99.90
15113;DHT22;7657;50.140;7.076;2023-03-01T03:38:53;-0.20;99.90
15113;DHT22;7657;50.140;7.076;2023-03-01T03:41:20;-0.30;99.90
15113;DHT22;7657;50.140;7.076;2023-03-01T03:43:46;-0.40;99.90
15113;DHT22;7657;50.140;7.076;2023-03-01T03:46:14;-0.40;99.90
15113;DHT22;7657;50.140;7.076;2023-03-01T03:48:43;-0.50;99.90
15113;DHT22;7657;50.140;7.076;2023-03-01T03:51:13;-0.50;99.90
15113;DHT22;7657;50.140;7.076;2023-03-01T03:53:41;-0.50;99.90
15113;DHT22;7657;50.140;7.076;2023-03-01T03:56:08;-0.50;99.90
15113;DHT22;7657;50.140;7.076;2023-03-01T03:58:35;-0.60;99.90
15113;DHT22;7657;50.140;7.076;2023-03-01T04:01:02;-0.60;99.90
15113;DHT22;7657;50.140;7.076;2023-03-01T04:03:30;-0.50;99.90
15113;DHT22;7657;50.140;7.076;2023-03-01T04:05:59;-0.50;99.90
15113;DHT22;7657;50.140;7.076;2023-03-01T04:08:28;-0.40;99.90
15113;DHT22;7657;50.140;7.076;2023-03-01T04:10:59;-0.40;99.90
15113;DHT22;7657;50.140;7.076;2023-03-01T04:13:46;-0.50;99.90
15113;DHT22;7657;50.140;7.076;2023-03-01T04:16:13;-0.40;99.90
15113;DHT22;7657;50.140;7.076;2023-03-01T04:18:40;-0.40;99.90
15113;DHT22;7657;50.140;7.076;2023-03-01T04:21:07;-0.40;99.90
15113;DHT22;7657;50.140;7.076;2023-03-01T04:23:35;-0.30;99.90
15113;DHT22;7657;50.140;7.076;2023-03-01T04:26:02;-0.40;99.90
15113;DHT22;7657;50.140;7.076;2023-03-01T04:28:32;-0.40;99.90
15113;DHT22;7657;50.140;7.076;2023-03-01T04:31:02;-0.40;99.90
15113;DHT22;7657;50.140;7.076;2023-03-01T04:33:38;-0.30;99.90
15113;DHT22;7657;50.140;7.076;2023-03-01T04:36:06;-0.30;99.90
15113;DHT22;7657;50.140;7.076;2023-03-01T04:38:36;-0.40;99.90
15113;DHT22;7657;50.140;7.076;2023-03-01T04:41:04;-0.40;99.90
15113;DHT22;7657;50.140;7.076;2023-03-01T04:43:31;-0.40;99.90
15113;DHT22;7657;50.140;7.076;2023-03-01T04:46:03;-0.40;99.90
15113;DHT22;7657;50.140;7.076;2023-03-01T04:48:31;-0.30;99.90
15113;DHT22;7657;50.140;7.076;2023-03-01T04:50:59;-0.30;99.90
15113;DHT22;7657;50.140;7.076;2023-03-01T04:53:26;-0.40;99.90
15113;DHT22;7657;50.140;7.076;2023-03-01T04:55:55;-0.30;99.90
15113;DHT22;7657;50.140;7.076;2023-03-01T04:58:23;-0.30;99.90
15113;DHT22;7657;50.140;7.076;2023-03-01T05:00:50;-0.30;99.90
15113;DHT22;7657;50.140;7.076;2023-03-01T05:03:17;-0.40;99.90
15113;DHT22;7657;50.140;7.076;2023-03-01T05:05:45;-0.50;99.90
15113;DHT22;7657;50.140;7.076;2023-03-01T05:08:12;-0.50;99.90
15113;DHT22;7657;50.140;7.076;2023-03-01T05:10:44;-0.60;99.90
15113;DHT22;7657;50.140;7.076;2023-03-01T05:13:13;-0.80;99.90
15113;DHT22;7657;50.140;7.076;2023-03-01T05:15:44;-0.80;99.90
15113;DHT22;7657;50.140;7.076;2023-03-01T05:18:11;-0.80;99.90
15113;DHT22;7657;50.140;7.076;2023-03-01T05:20:38;-0.90;99.90
15113;DHT22;7657;50.140;7.076;2023-03-01T05:23:05;-0.90;99.90
15113;DHT22;7657;50.140;7.076;2023-03-01T05:25:33;-0.90;99.90
15113;DHT22;7657;50.140;7.076;2023-03-01T05:28:06;-0.90;99.90
15113;DHT22;7657;50.140;7.076;2023-03-01T05:30:38;-0.90;99.90
15113;DHT22;7657;50.140;7.076;2023-03-01T05:33:08;-0.90;99.90
15113;DHT22;7657;50.140;7.076;2023-03-01T05:35:39;-1.00;99.90
15113;DHT22;7657;50.140;7.076;2023-03-01T05:38:06;-1.00;99.90
15113;DHT22;7657;50.140;7.076;2023-03-01T05:40:34;-1.10;99.90
15113;DHT22;7657;50.140;7.076;2023-03-01T05:43:01;-1.10;99.90
15113;DHT22;7657;50.140;7.076;2023-03-01T05:45:31;-1.10;99.90
15113;DHT22;7657;50.140;7.076;2023-03-01T05:48:00;-1.20;99.90
15113;DHT22;7657;50.140;7.076;2023-03-01T05:50:28;-1.10;99.90
15113;DHT22;7657;50.140;7.076;2023-03-01T05:52:58;-1.10;99.90
15113;DHT22;7657;50.140;7.076;2023-03-01T05:55:26;-1.20;99.90
15113;DHT22;7657;50.140;7.076;2023-03-01T05:57:53;-1.20;99.90
15113;DHT22;7657;50.140;7.076;2023-03-01T06:00:22;-1.30;99.90
15113;DHT22;7657;50.140;7.076;2023-03-01T06:02:49;-1.30;99.90
15113;DHT22;7657;50.140;7.076;2023-03-01T06:05:17;-1.30;99.90
15113;DHT22;7657;50.140;7.076;2023-03-01T06:07:44;-1.30;99.90
15113;DHT22;7657;50.140;7.076;2023-03-01T06:10:12;-1.20;99.90
15113;DHT22;7657;50.140;7.076;2023-03-01T06:12:41;-1.20;99.90
15113;DHT22;7657;50.140;7.076;2023-03-01T06:15:10;-1.20;99.90
15113;DHT22;7657;50.140;7.076;2023-03-01T06:17:38;-1.10;99.90
15113;DHT22;7657;50.140;7.076;2023-03-01T06:20:08;-1.20;99.90
15113;DHT22;7657;50.140;7.076;2023-03-01T06:22:37;-1.30;99.90
15113;DHT22;7657;50.140;7.076;2023-03-01T06:25:05;-1.20;99.90
15113;DHT22;7657;50.140;7.076;2023-03-01T06:27:32;-1.10;99.90
15113;DHT22;7657;50.140;7.076;2023-03-01T06:29:59;-1.20;99.90
15113;DHT22;7657;50.140;7.076;2023-03-01T06:32:27;-1.00;99.90
15113;DHT22;7657;50.140;7.076;2023-03-01T06:34:53;-1.10;99.90
15113;DHT22;7657;50.140;7.076;2023-03-01T06:37:20;-1.00;99.90
15113;DHT22;7657;50.140;7.076;2023-03-01T06:39:48;-1.00;99.90
15113;DHT22;7657;50.140;7.076;2023-03-01T06:42:15;-0.90;99.90
15113;DHT22;7657;50.140;7.076;2023-03-01T06:44:43;-1.00;99.90
15113;DHT22;7657;50.140;7.076;2023-03-01T06:47:11;-1.00;99.90
15113;DHT22;7657;50.140;7.076;2023-03-01T06:49:38;-1.00;99.90
15113;DHT22;7657;50.140;7.076;2023-03-01T06:52:05;-0.90;99.90
15113;DHT22;7657;50.140;7.076;2023-03-01T06:54:31;-0.90;99.90
15113;DHT22;7657;50.140;7.076;2023-03-01T06:57:00;-0.90;99.90
15113;DHT22;7657;50.140;7.076;2023-03-01T06:59:27;-1.00;99.90
15113;DHT22;7657;50.140;7.076;2023-03-01T07:01:54;-1.00;99.90
15113;DHT22;7657;50.140;7.076;2023-03-01T07:04:20;-1.00;99.90
15113;DHT22;7657;50.140;7.076;2023-03-01T07:06:47;-1.00;99.90
15113;DHT22;7657;50.140;7.076;2023-03-01T07:09:20;-1.00;99.90
15113;DHT22;7657;50.140;7.076;2023-03-01T07:11:48;-0.90;99.90
15113;DHT22;7657;50.140;7.076;2023-03-01T07:14:16;-1.00;99.90
15113;DHT22;7657;50.140;7.076;2023-03-01T07:16:45;-0.90;99.90
15113;DHT22;7657;50.140;7.076;2023-03-01T07:19:12;-1.00;99.90
15113;DHT22;7657;50.140;7.076;2023-03-01T07:21:39;-0.90;99.90
15113;DHT22;7657;50.140;7.076;2023-03-01T07:24:06;-0.90;99.90
15113;DHT22;7657;50.140;7.076;2023-03-01T07:26:33;-1.00;99.90
15113;DHT22;7657;50.140;7.076;2023-03-01T07:29:01;-1.00;99.90
15113;DHT22;7657;50.140;7.076;2023-03-01T07:31:30;-0.90;99.90
15113;DHT22;7657;50.140;7.076;2023-03-01T07:33:57;-0.80;99.90
15113;DHT22;7657;50.140;7.076;2023-03-01T07:36:24;-0.80;99.90
15113;DHT22;7657;50.140;7.076;2023-03-01T07:38:51;-0.70;99.90
15113;DHT22;7657;50.140;7.076;2023-03-01T07:41:18;-0.60;99.90
15113;DHT22;7657;50.140;7.076;2023-03-01T07:43:45;-0.60;99.90
15113;DHT22;7657;50.140;7.076;2023-03-01T07:46:12;-0.70;99.90
15113;DHT22;7657;50.140;7.076;2023-03-01T07:48:40;-0.60;99.90
15113;DHT22;7657;50.140;7.076;2023-03-01T07:51:07;-0.50;99.90
15113;DHT22;7657;50.140;7.076;2023-03-01T07:53:34;-0.50;99.90
15113;DHT22;7657;50.140;7.076;2023-03-01T07:56:03;-0.40;99.90
15113;DHT22;7657;50.140;7.076;2023-03-01T07:58:30;-0.40;99.90
15113;DHT22;7657;50.140;7.076;2023-03-01T08:01:01;-0.30;99.90
15113;DHT22;7657;50.140;7.076;2023-03-01T08:03:29;-0.30;99.90
15113;DHT22;7657;50.140;7.076;2023-03-01T08:05:59;-0.20;99.90
15113;DHT22;7657;50.140;7.076;2023-03-01T08:08:26;-0.10;99.90
15113;DHT22;7657;50.140;7.076;2023-03-01T08:10:56;-0.20;99.90
15113;DHT22;7657;50.140;7.076;2023-03-01T08:13:23;-0.30;99.90
15113;DHT22;7657;50.140;7.076;2023-03-01T08:15:50;-0.30;99.90
15113;DHT22;7657;50.140;7.076;2023-03-01T08:18:18;-0.30;99.90
15113;DHT22;7657;50.140;7.076;2023-03-01T08:20:45;-0.30;99.90
15113;DHT22;7657;50.140;7.076;2023-03-01T08:23:14;-0.40;99.90
15113;DHT22;7657;50.140;7.076;2023-03-01T08:25:41;-0.40;99.90
15113;DHT22;7657;50.140;7.076;2023-03-01T08:28:07;-0.40;99.90
15113;DHT22;7657;50.140;7.076;2023-03-01T08:30:35;-0.30;99.90
15113;DHT22;7657;50.140;7.076;2023-03-01T08:33:02;-0.30;99.90
15113;DHT22;7657;50.140;7.076;2023-03-01T08:35:28;-0.30;99.90
15113;DHT22;7657;50.140;7.076;2023-03-01T08:37:55;-0.30;99.90
15113;DHT22;7657;50.140;7.076;2023-03-01T08:40:24;-0.30;99.90
15113;DHT22;7657;50.140;7.076;2023-03-01T08:42:50;-0.40;99.90
15113;DHT22;7657;50.140;7.076;2023-03-01T08:45:18;-0.30;99.90
15113;DHT22;7657;50.140;7.076;2023-03-01T08:47:45;-0.30;99.90
15113;DHT22;7657;50.140;7.076;2023-03-01T08:50:12;-0.20;99.90
15113;DHT22;7657;50.140;7.076;2023-03-01T08:52:38;-0.20;99.90
15113;DHT22;7657;50.140;7.076;2023-03-01T08:55:07;-0.10;99.90
15113;DHT22;7657;50.140;7.076;2023-03-01T08:57:35;-0.10;99.90
15113;DHT22;7657;50.140;7.076;2023-03-01T09:00:03;-0.10;99.90
15113;DHT22;7657;50.140;7.076;2023-03-01T09:02:33;-0.10;99.90
15113;DHT22;7657;50.140;7.076;2023-03-01T09:05:00;-0.20;99.90
15113;DHT22;7657;50.140;7.076;2023-03-01T09:07:27;-0.30;99.90
15113;DHT22;7657;50.140;7.076;2023-03-01T09:09:54;-0.30;99.90
15113;DHT22;7657;50.140;7.076;2023-03-01T09:12:21;-0.30;99.90
15113;DHT22;7657;50.140;7.076;2023-03-01T09:14:51;-0.10;99.90
15113;DHT22;7657;50.140;7.076;2023-03-01T09:17:18;-0.10;99.90
15113;DHT22;7657;50.140;7.076;2023-03-01T09:19:47;-0.10;99.90
15113;DHT22;7657;50.140;7.076;2023-03-01T09:22:13;-0.10;99.90
15113;DHT22;7657;50.140;7.076;2023-03-01T09:24:40;-0.10;99.90
15113;DHT22;7657;50.140;7.076;2023-03-01T09:27:07;-0.10;99.90
15113;DHT22;7657;50.140;7.076;2023-03-01T09:29:35;-0.10;99.90
15113;DHT22;7657;50.140;7.076;2023-03-01T09:32:03;0.00;99.90
15113;DHT22;7657;50.140;7.076;2023-03-01T09:34:31;0.10;99.90
15113;DHT22;7657;50.140;7.076;2023-03-01T09:37:17;0.20;99.90
15113;DHT22;7657;50.140;7.076;2023-03-01T09:39:44;0.40;99.90
15113;DHT22;7657;50.140;7.076;2023-03-01T09:42:12;0.30;99.90
15113;DHT22;7657;50.140;7.076;2023-03-01T09:44:43;0.30;99.90
15113;DHT22;7657;50.140;7.076;2023-03-01T09:47:18;0.40;99.90
15113;DHT22;7657;50.140;7.076;2023-03-01T09:49:50;0.60;99.90
15113;DHT22;7657;50.140;7.076;2023-03-01T09:52:25;0.80;99.90
15113;DHT22;7657;50.140;7.076;2023-03-01T09:54:55;0.90;99.90
15113;DHT22;7657;50.140;7.076;2023-03-01T09:57:33;0.90;99.90
15113;DHT22;7657;50.140;7.076;2023-03-01T10:00:13;1.00;99.90
15113;DHT22;7657;50.140;7.076;2023-03-01T10:02:47;1.10;99.90
15113;DHT22;7657;50.140;7.076;2023-03-01T10:05:37;1.00;99.90
15113;DHT22;7657;50.140;7.076;2023-03-01T10:08:33;1.10;99.90
15113;DHT22;7657;50.140;7.076;2023-03-01T10:11:02;1.20;99.90
15113;DHT22;7657;50.140;7.076;2023-03-01T10:13:36;1.20;99.90
15113;DHT22;7657;50.140;7.076;2023-03-01T10:16:10;1.30;99.90
15113;DHT22;7657;50.140;7.076;2023-03-01T10:18:40;1.30;99.90
15113;DHT22;7657;50.140;7.076;2023-03-01T10:21:14;1.30;99.90
15113;DHT22;7657;50.140;7.076;2023-03-01T10:23:42;1.40;99.90
15113;DHT22;7657;50.140;7.076;2023-03-01T10:26:20;1.40;99.90
15113;DHT22;7657;50.140;7.076;2023-03-01T10:28:57;1.40;99.90
15113;DHT22;7657;50.140;7.076;2023-03-01T10:31:36;1.40;99.90
15113;DHT22;7657;50.140;7.076;2023-03-01T10:34:10;1.30;99.90
15113;DHT22;7657;50.140;7.076;2023-03-01T10:36:39;1.40;99.90
15113;DHT22;7657;50.140;7.076;2023-03-01T10:39:13;1.40;99.90
15113;DHT22;7657;50.140;7.076;2023-03-01T10:41:52;1.50;99.90
15113;DHT22;7657;50.140;7.076;2023-03-01T10:44:41;1.70;99.90
15113;DHT22;7657;50.140;7.076;2023-03-01T10:47:14;1.70;99.90
15113;DHT22;7657;50.140;7.076;2023-03-01T10:49:54;1.80;99.90
15113;DHT22;7657;50.140;7.076;2023-03-01T10:52:24;1.80;99.90
15113;DHT22;7657;50.140;7.076;2023-03-01T10:54:53;2.00;99.90
15113;DHT22;7657;50.140;7.076;2023-03-01T10:57:33;2.00;99.90
15113;DHT22;7657;50.140;7.076;2023-03-01T11:00:21;2.00;99.90
15113;DHT22;7657;50.140;7.076;2023-03-01T11:02:51;2.10;99.90
15113;DHT22;7657;50.140;7.076;2023-03-01T11:05:29;2.10;99.90
15113;DHT22;7657;50.140;7.076;2023-03-01T11:08:00;2.00;99.90
15113;DHT22;7657;50.140;7.076;2023-03-01T11:10:30;2.00;99.90
15113;DHT22;7657;50.140;7.076;2023-03-01T11:13:06;2.00;99.90
15113;DHT22;7657;50.140;7.076;2023-03-01T11:15:34;2.10;99.90
15113;DHT22;7657;50.140;7.076;2023-03-01T11:18:01;2.10;99.90
15113;DHT22;7657;50.140;7.076;2023-03-01T11:20:33;2.30;99.90
15113;DHT22;7657;50.140;7.076;2023-03-01T11:23:04;2.20;99.90
15113;DHT22;7657;50.140;7.076;2023-03-01T11:25:35;2.10;99.90
15113;DHT22;7657;50.140;7.076;2023-03-01T11:28:07;2.30;99.90
15113;DHT22;7657;50.140;7.076;2023-03-01T11:30:38;2.40;99.90
15113;DHT22;7657;50.140;7.076;2023-03-01T11:33:15;2.40;99.90
15113;DHT22;7657;50.140;7.076;2023-03-01T11:35:49;2.30;99.90
15113;DHT22;7657;50.140;7.076;2023-03-01T11:38:21;2.30;99.90
15113;DHT22;7657;50.140;7.076;2023-03-01T11:40:53;2.40;99.90
15113;DHT22;7657;50.140;7.076;2023-03-01T11:43:28;2.50;99.90
15113;DHT22;7657;50.140;7.076;2023-03-01T11:49:02;2.50;99.90
15113;DHT22;7657;50.140;7.076;2023-03-01T11:51:41;2.50;99.90
15113;DHT22;7657;50.140;7.076;2023-03-01T11:54:21;2.60;99.90
15113;DHT22;7657;50.140;7.076;2023-03-01T11:56:55;2.70;99.90
15113;DHT22;7657;50.140;7.076;2023-03-01T11:59:41;2.70;99.90
15113;DHT22;7657;50.140;7.076;2023-03-01T12:02:39;2.60;99.90
15113;DHT22;7657;50.140;7.076;2023-03-01T12:08:16;2.80;99.90
15113;DHT22;7657;50.140;7.076;2023-03-01T12:10:55;2.90;99.90
15113;DHT22;7657;50.140;7.076;2023-03-01T12:13:42;3.00;99.90
15113;DHT22;7657;50.140;7.076;2023-03-01T12:16:23;3.00;99.90
15113;DHT22;7657;50.140;7.076;2023-03-01T12:19:07;2.90;99.90
15113;DHT22;7657;50.140;7.076;2023-03-01T12:21:55;3.00;99.90
15113;DHT22;7657;50.140;7.076;2023-03-01T12:24:49;2.90;99.90
15113;DHT22;7657;50.140;7.076;2023-03-01T12:30:20;3.10;99.90
15113;DHT22;7657;50.140;7.076;2023-03-01T12:33:00;3.30;99.90
15113;DHT22;7657;50.140;7.076;2023-03-01T12:35:40;3.30;99.90
15113;DHT22;7657;50.140;7.076;2023-03-01T12:38:24;3.40;99.90
15113;DHT22;7657;50.140;7.076;2023-03-01T12:41:19;3.30;99.90
15113;DHT22;7657;50.140;7.076;2023-03-01T12:43:58;3.40;99.90
15113;DHT22;7657;50.140;7.076;2023-03-01T12:46:37;3.40;99.90
15113;DHT22;7657;50.140;7.076;2023-03-01T12:49:12;3.50;99.90
15113;DHT22;7657;50.140;7.076;2023-03-01T12:51:40;3.60;99.90
15113;DHT22;7657;50.140;7.076;2023-03-01T12:54:15;3.70;99.90
15113;DHT22;7657;50.140;7.076;2023-03-01T12:56:45;3.80;99.90
15113;DHT22;7657;50.140;7.076;2023-03-01T12:59:20;3.70;99.90
15113;DHT22;7657;50.140;7.076;2023-03-01T13:01:52;3.80;99.90
15113;DHT22;7657;50.140;7.076;2023-03-01T13:04:40;3.80;99.90
15113;DHT22;7657;50.140;7.076;2023-03-01T13:07:25;3.90;99.90
15113;DHT22;7657;50.140;7.076;2023-03-01T13:10:02;3.80;99.90
15113;DHT22;7657;50.140;7.076;2023-03-01T13:12:45;3.90;99.90
15113;DHT22;7657;50.140;7.076;2023-03-01T13:15:26;3.90;99.90
15113;DHT22;7657;50.140;7.076;2023-03-01T13:17:54;4.00;99.90
15113;DHT22;7657;50.140;7.076;2023-03-01T13:20:25;4.20;99.90
15113;DHT22;7657;50.140;7.076;2023-03-01T13:23:03;4.20;99.90
15113;DHT22;7657;50.140;7.076;2023-03-01T13:25:31;4.30;99.90
15113;DHT22;7657;50.140;7.076;2023-03-01T13:31:04;4.30;99.90
15113;DHT22;7657;50.140;7.076;2023-03-01T13:33:40;4.30;99.90
15113;DHT22;7657;50.140;7.076;2023-03-01T13:36:08;4.40;99.90
15113;DHT22;7657;50.140;7.076;2023-03-01T13:38:45;4.30;99.90
15113;DHT22;7657;50.140;7.076;2023-03-01T13:41:13;4.40;99.90
15113;DHT22;7657;50.140;7.076;2023-03-01T13:43:41;4.50;99.90
15113;DHT22;7657;50.140;7.076;2023-03-01T13:46:15;4.70;99.90
15113;DHT22;7657;50.140;7.076;2023-03-01T13:48:45;4.70;99.90
15113;DHT22;7657;50.140;7.076;2023-03-01T13:51:12;4.70;99.90
15113;DHT22;7657;50.140;7.076;2023-03-01T13:53:42;4.80;99.90
15113;DHT22;7657;50.140;7.076;2023-03-01T13:56:12;4.80;99.90
15113;DHT22;7657;50.140;7.076;2023-03-01T13:58:47;4.90;99.90
15113;DHT22;7657;50.140;7.076;2023-03-01T14:01:25;4.90;99.90
15113;DHT22;7657;50.140;7.076;2023-03-01T14:03:52;5.00;99.90
15113;DHT22;7657;50.140;7.076;2023-03-01T14:06:21;4.90;99.90
15113;DHT22;7657;50.140;7.076;2023-03-01T14:08:51;4.80;99.90
15113;DHT22;7657;50.140;7.076;2023-03-01T14:14:42;5.00;99.90
15113;DHT22;7657;50.140;7.076;2023-03-01T14:17:33;5.10;99.90
15113;DHT22;7657;50.140;7.076;2023-03-01T14:20:11;5.10;99.90
15113;DHT22;7657;50.140;7.076;2023-03-01T14:22:41;5.10;99.90
15113;DHT22;7657;50.140;7.076;2023-03-01T14:25:19;5.10;99.90
15113;DHT22;7657;50.140;7.076;2023-03-01T14:27:52;5.10;99.90
15113;DHT22;7657;50.140;7.076;2023-03-01T14:30:24;5.20;99.90
15113;DHT22;7657;50.140;7.076;2023-03-01T14:32:58;5.20;99.90
15113;DHT22;7657;50.140;7.076;2023-03-01T14:35:27;5.20;99.90
15113;DHT22;7657;50.140;7.076;2023-03-01T14:37:54;5.20;99.90
15113;DHT22;7657;50.140;7.076;2023-03-01T14:40:24;5.20;99.90
15113;DHT22;7657;50.140;7.076;2023-03-01T14:42:52;5.20;99.90
15113;DHT22;7657;50.140;7.076;2023-03-01T14:45:20;5.20;99.90
15113;DHT22;7657;50.140;7.076;2023-03-01T14:47:47;5.20;99.90
15113;DHT22;7657;50.140;7.076;2023-03-01T14:50:22;5.20;99.90
15113;DHT22;7657;50.140;7.076;2023-03-01T14:52:51;5.30;99.90
15113;DHT22;7657;50.140;7.076;2023-03-01T14:55:21;5.30;99.90
15113;DHT22;7657;50.140;7.076;2023-03-01T14:57:49;5.30;99.90
15113;DHT22;7657;50.140;7.076;2023-03-01T15:00:19;5.40;99.90
15113;DHT22;7657;50.140;7.076;2023-03-01T15:02:47;5.50;99.90
15113;DHT22;7657;50.140;7.076;2023-03-01T15:05:18;5.40;99.90
15113;DHT22;7657;50.140;7.076;2023-03-01T15:07:45;5.40;99.90
15113;DHT22;7657;50.140;7.076;2023-03-01T15:10:19;5.30;99.90
15113;DHT22;7657;50.140;7.076;2023-03-01T15:12:46;5.30;99.90
15113;DHT22;7657;50.140;7.076;2023-03-01T15:15:38;5.40;99.90
15113;DHT22;7657;50.140;7.076;2023-03-01T15:18:16;5.40;99.90
15113;DHT22;7657;50.140;7.076;2023-03-01T15:20:45;5.40;99.90
15113;DHT22;7657;50.140;7.076;2023-03-01T15:23:22;5.50;99.90
15113;DHT22;7657;50.140;7.076;2023-03-01T15:25:50;5.60;99.90
15113;DHT22;7657;50.140;7.076;2023-03-01T15:28:23;5.60;99.90
15113;DHT22;7657;50.140;7.076;2023-03-01T15:30:56;5.60;99.90
15113;DHT22;7657;50.140;7.076;2023-03-01T15:33:30;5.60;99.90
15113;DHT22;7657;50.140;7.076;2023-03-01T15:35:59;5.60;99.90
15113;DHT22;7657;50.140;7.076;2023-03-01T15:38:32;5.50;99.90
15113;DHT22;7657;50.140;7.076;2023-03-01T15:41:01;5.50;99.90
15113;DHT22;7657;50.140;7.076;2023-03-01T15:43:40;5.50;99.90
15113;DHT22;7657;50.140;7.076;2023-03-01T15:46:17;5.50;99.90
15113;DHT22;7657;50.140;7.076;2023-03-01T15:48:46;5.60;99.90
15113;DHT22;7657;50.140;7.076;2023-03-01T15:51:16;5.60;99.90
15113;DHT22;7657;50.140;7.076;2023-03-01T15:53:49;5.60;99.90
15113;DHT22;7657;50.140;7.076;2023-03-01T15:56:16;5.50;99.90
15113;DHT22;7657;50.140;7.076;2023-03-01T15:58:43;5.50;99.90
15113;DHT22;7657;50.140;7.076;2023-03-01T16:01:12;5.50;99.90
15113;DHT22;7657;50.140;7.076;2023-03-01T16:03:39;5.50;99.90
15113;DHT22;7657;50.140;7.076;2023-03-01T16:06:08;5.60;99.90
15113;DHT22;7657;50.140;7.076;2023-03-01T16:08:37;5.50;99.90
15113;DHT22;7657;50.140;7.076;2023-03-01T16:11:04;5.50;99.90
15113;DHT22;7657;50.140;7.076;2023-03-01T16:13:32;5.50;99.90
15113;DHT22;7657;50.140;7.076;2023-03-01T16:15:59;5.50;99.90
15113;DHT22;7657;50.140;7.076;2023-03-01T16:18:26;5.50;99.90
15113;DHT22;7657;50.140;7.076;2023-03-01T16:20:53;5.50;99.90
15113;DHT22;7657;50.140;7.076;2023-03-01T16:23:20;5.50;99.90
15113;DHT22;7657;50.140;7.076;2023-03-01T16:25:51;5.40;99.90
15113;DHT22;7657;50.140;7.076;2023-03-01T16:28:18;5.40;99.90
15113;DHT22;7657;50.140;7.076;2023-03-01T16:30:46;5.40;99.90